Time;durP1;ratioP1;P1;durP2;ratioP2;P2;SDS_P1;SDS_P2;PMS_P1;PMS_P2;Temp;Humidity;BMP_temperature;BMP_pressure;BME280_temperature;BME280_humidity;BME280_pressure;Samples;Min_cycle;Max_cycle;Signal;HPM_P1;HPM_P2
2024/03/29 01:44:52;;;;;;;1.87;1.50;;;7.90;1.00;;;;;;5078729;28;23160;-76
2024/03/29 01:47:19;;;;;;;3.83;0.87;;;7.80;1.00;;;;;;5079905;27;21235;-78
2024/03/29 01:49:46;;;;;;;2.00;0.90;;;7.80;1.00;;;;;;5074850;28;20480;-74
2024/03/29 01:52:16;;;;;;;1.57;1.10;;;7.70;1.00;;;;;;5083578;28;20513;-75
2024/03/29 01:54:44;;;;;;;1.30;1.00;;;7.60;1.00;;;;;;5078812;27;20482;-75
2024/03/29 01:57:12;;;;;;;3.60;1.10;;;7.60;1.00;;;;;;5083083;28;20485;-76
2024/03/29 01:59:43;;;;;;;1.80;1.40;;;7.50;1.00;;;;;;5091975;27;20480;-75
2024/03/29 02:02:12;;;;;;;3.00;1.33;;;7.60;1.00;;;;;;5090325;27;20326;-76
2024/03/29 02:04:39;;;;;;;1.17;1.00;;;7.50;1.00;;;;;;5082327;28;20472;-75
2024/03/29 02:07:07;;;;;;;1.30;1.20;;;7.50;1.00;;;;;;5082838;27;20242;-75
2024/03/29 02:09:34;;;;;;;2.15;1.45;;;7.50;1.00;;;;;;5081265;27;20462;-74
2024/03/29 02:12:01;;;;;;;1.70;1.17;;;7.50;1.00;;;;;;5091666;27;20238;-73
2024/03/29 02:14:28;;;;;;;1.37;1.27;;;7.50;1.00;;;;;;5083826;27;20532;-73
2024/03/29 02:16:55;;;;;;;1.70;1.60;;;7.50;1.00;;;;;;5081958;27;20494;-73
2024/03/29 02:19:23;;;;;;;1.97;1.27;;;7.40;1.00;;;;;;5102119;27;20542;-74
2024/03/29 02:21:55;;;;;;;2.33;1.67;;;7.30;1.00;;;;;;5102045;27;20490;-73
2024/03/29 02:24:23;;;;;;;1.80;1.38;;;7.40;1.00;;;;;;5106315;27;20522;-74
2024/03/29 02:26:53;;;;;;;1.90;1.40;;;7.40;1.00;;;;;;5107932;27;20271;-74
2024/03/29 02:29:20;;;;;;;1.75;1.50;;;7.40;1.00;;;;;;5107648;27;20256;-74
2024/03/29 02:31:47;;;;;;;1.93;1.43;;;7.30;1.00;;;;;;5107488;27;20721;-73
2024/03/29 02:34:15;;;;;;;3.87;1.50;;;7.30;1.00;;;;;;5104755;27;20440;-73
2024/03/29 02:36:43;;;;;;;1.85;1.75;;;7.30;1.00;;;;;;5103967;27;20977;-72
2024/03/29 02:39:10;;;;;;;3.85;2.05;;;7.30;1.00;;;;;;5103696;27;20731;-72
2024/03/29 02:41:39;;;;;;;2.60;1.70;;;7.30;1.00;;;;;;5102517;27;20348;-74
2024/03/29 02:44:06;;;;;;;2.73;2.10;;;7.30;1.00;;;;;;5104115;27;20526;-75
2024/03/29 02:46:31;;;;;;;3.80;1.73;;;7.30;1.00;;;;;;5109712;27;20506;-74
2024/03/29 02:48:58;;;;;;;2.20;2.00;;;7.20;1.00;;;;;;5105180;27;20855;-74
2024/03/29 02:51:24;;;;;;;2.45;1.90;;;7.20;1.00;;;;;;5105947;27;20778;-74
2024/03/29 02:53:51;;;;;;;2.03;1.80;;;7.20;1.00;;;;;;5103444;27;20329;-73
2024/03/29 02:56:21;;;;;;;2.55;2.10;;;7.20;1.00;;;;;;5102935;27;20499;-72
2024/03/29 02:58:49;;;;;;;3.80;1.90;;;7.20;1.00;;;;;;5106275;27;20237;-73
2024/03/29 03:01:15;;;;;;;2.50;2.10;;;7.20;1.00;;;;;;5102663;27;20326;-73
2024/03/29 03:03:42;;;;;;;3.50;1.80;;;7.20;1.00;;;;;;5105971;27;20451;-73
2024/03/29 03:06:08;;;;;;;2.87;1.57;;;7.10;1.00;;;;;;5103659;27;21233;-73
2024/03/29 03:11:19;;;;;;;2.70;1.80;;;7.10;1.00;;;;;;5104989;27;22384;-72
2024/03/29 03:13:45;;;;;;;2.55;2.35;;;7.00;1.00;;;;;;5106873;27;20238;-73
2024/03/29 03:16:13;;;;;;;3.37;2.27;;;7.00;1.00;;;;;;5107282;27;20237;-74
2024/03/29 03:18:39;;;;;;;3.27;2.00;;;6.90;1.00;;;;;;5103530;27;20455;-73
2024/03/29 03:21:07;;;;;;;2.40;1.80;;;7.00;1.00;;;;;;5103407;27;20548;-74
2024/03/29 03:23:32;;;;;;;2.80;2.13;;;6.90;1.00;;;;;;5105494;27;20810;-75
2024/03/29 03:26:02;;;;;;;1.97;1.77;;;6.90;1.00;;;;;;5109398;27;20465;-76
2024/03/29 03:28:28;;;;;;;2.55;1.90;;;6.90;1.00;;;;;;5106619;27;20471;-74
2024/03/29 03:30:55;;;;;;;2.60;2.33;;;6.80;1.00;;;;;;5096571;27;20234;-75
2024/03/29 03:33:23;;;;;;;2.63;2.00;;;6.80;1.00;;;;;;5107471;27;20825;-75
2024/03/29 03:35:50;;;;;;;2.42;1.98;;;6.80;1.00;;;;;;5102853;27;20475;-75
2024/03/29 03:38:17;;;;;;;3.03;2.20;;;6.80;1.00;;;;;;5083977;28;20733;-77
2024/03/29 03:40:44;;;;;;;4.67;2.20;;;6.80;1.00;;;;;;5084133;28;20250;-75
2024/03/29 03:43:10;;;;;;;2.58;2.10;;;6.70;1.00;;;;;;5088409;27;20476;-74
2024/03/29 03:45:37;;;;;;;2.47;1.77;;;6.70;1.00;;;;;;5086954;27;20243;-75
2024/03/29 03:48:03;;;;;;;3.88;1.80;;;6.70;1.00;;;;;;5081167;28;20548;-75
2024/03/29 03:50:32;;;;;;;4.43;2.10;;;6.70;1.00;;;;;;5082606;28;20250;-76
2024/03/29 03:52:58;;;;;;;2.30;1.90;;;6.70;1.00;;;;;;5082672;27;21064;-75
2024/03/29 03:55:25;;;;;;;3.25;2.20;;;6.70;1.00;;;;;;5085963;27;20983;-76
2024/03/29 03:57:52;;;;;;;3.17;2.00;;;6.60;1.00;;;;;;5085291;28;20287;-75
2024/03/29 04:00:20;;;;;;;3.22;2.22;;;6.60;1.00;;;;;;5085171;27;20236;-77
2024/03/29 04:02:48;;;;;;;2.50;1.85;;;6.60;1.00;;;;;;5082807;27;20323;-77
2024/03/29 04:05:15;;;;;;;2.90;1.92;;;6.60;1.00;;;;;;5080169;27;20269;-75
2024/03/29 04:07:42;;;;;;;4.50;3.13;;;6.60;1.00;;;;;;5079318;27;20241;-75
2024/03/29 04:10:10;;;;;;;3.10;2.80;;;6.60;1.00;;;;;;5083107;27;20232;-75
2024/03/29 04:12:36;;;;;;;2.97;1.80;;;6.60;1.00;;;;;;5078876;27;20465;-75
2024/03/29 04:15:04;;;;;;;5.50;2.13;;;6.60;1.00;;;;;;5087331;28;20249;-75
2024/03/29 04:17:30;;;;;;;2.22;1.67;;;6.50;1.00;;;;;;5085368;27;20485;-75
2024/03/29 04:19:57;;;;;;;4.43;2.10;;;6.50;1.00;;;;;;5083816;28;20316;-76
2024/03/29 04:22:23;;;;;;;3.38;2.30;;;6.50;1.00;;;;;;5083377;27;21032;-76
2024/03/29 04:24:52;;;;;;;3.00;2.53;;;6.50;1.00;;;;;;5088384;27;20236;-78
2024/03/29 04:27:18;;;;;;;5.38;2.75;;;6.50;1.00;;;;;;5108648;27;20459;-78
2024/03/29 04:29:45;;;;;;;5.37;2.80;;;6.50;1.00;;;;;;5102616;27;20287;-75
2024/03/29 04:32:11;;;;;;;2.80;2.60;;;6.40;1.00;;;;;;5102892;27;20466;-75
2024/03/29 04:34:38;;;;;;;2.97;2.65;;;6.50;1.00;;;;;;5102778;27;20247;-76
2024/03/29 04:37:05;;;;;;;4.38;3.15;;;6.40;1.00;;;;;;5103966;27;20331;-75
2024/03/29 04:39:32;;;;;;;7.22;2.72;;;6.40;1.00;;;;;;5104605;27;20258;-74
2024/03/29 04:42:00;;;;;;;4.13;2.47;;;6.40;1.00;;;;;;5104095;27;20234;-75
2024/03/29 04:44:28;;;;;;;2.35;2.15;;;6.30;1.00;;;;;;5095100;27;20852;-73
2024/03/29 04:46:55;;;;;;;3.28;1.83;;;6.30;1.00;;;;;;5104150;27;22519;-74
2024/03/29 04:49:30;;;;;;;3.88;2.38;;;6.30;1.00;;;;;;5104974;27;20291;-73
2024/03/29 04:51:57;;;;;;;3.53;1.80;;;6.30;1.00;;;;;;5096042;27;20314;-74
2024/03/29 04:54:24;;;;;;;10.57;2.40;;;6.30;1.00;;;;;;5104271;27;20536;-73
2024/03/29 04:56:51;;;;;;;2.55;2.35;;;6.40;1.00;;;;;;5101792;27;20309;-76
2024/03/29 04:59:20;;;;;;;4.05;1.83;;;6.40;1.00;;;;;;5090251;27;20357;-75
2024/03/29 05:01:50;;;;;;;2.73;2.20;;;6.40;1.00;;;;;;5078845;28;20314;-74
2024/03/29 05:04:18;;;;;;;2.85;2.22;;;6.40;1.00;;;;;;5073314;28;21259;-75
2024/03/29 05:06:45;;;;;;;3.50;1.80;;;6.40;1.00;;;;;;5101288;27;20248;-75
2024/03/29 05:09:12;;;;;;;4.90;2.30;;;6.50;1.00;;;;;;5104521;27;20241;-75
2024/03/29 05:11:39;;;;;;;5.65;2.10;;;6.50;1.00;;;;;;5098224;27;20282;-74
2024/03/29 05:14:06;;;;;;;3.10;1.70;;;6.50;1.00;;;;;;5101981;27;20237;-75
2024/03/29 05:16:36;;;;;;;3.85;2.28;;;6.60;1.00;;;;;;5101424;27;20542;-76
2024/03/29 05:19:03;;;;;;;4.78;2.13;;;6.60;1.00;;;;;;5103655;27;20328;-75
2024/03/29 05:21:29;;;;;;;2.50;1.67;;;6.60;1.00;;;;;;5087188;27;20238;-76
2024/03/29 05:23:56;;;;;;;2.40;2.20;;;6.70;1.00;;;;;;5082613;27;20564;-74
2024/03/29 05:26:24;;;;;;;1.80;1.65;;;6.80;1.00;;;;;;5099291;27;20797;-74
2024/03/29 05:28:51;;;;;;;2.30;1.40;;;6.90;1.00;;;;;;5106088;27;20249;-73
2024/03/29 05:31:18;;;;;;;2.93;1.43;;;6.90;1.00;;;;;;5103725;27;20449;-73
2024/03/29 05:33:47;;;;;;;1.80;1.60;;;7.00;1.00;;;;;;5103448;27;20476;-74
2024/03/29 05:36:14;;;;;;;2.95;1.63;;;7.00;1.00;;;;;;5103470;27;20238;-75
2024/03/29 05:38:41;;;;;;;2.23;1.47;;;7.00;1.00;;;;;;5093427;27;20246;-74
2024/03/29 05:41:08;;;;;;;1.60;1.50;;;7.10;1.00;;;;;;5080230;27;20477;-74
2024/03/29 05:43:35;;;;;;;1.87;1.67;;;7.20;1.00;;;;;;5098628;27;20465;-75
2024/03/29 05:46:03;;;;;;;2.20;1.57;;;7.20;1.00;;;;;;5100626;27;20597;-75
2024/03/29 05:48:30;;;;;;;2.70;1.70;;;7.40;1.00;;;;;;5103009;27;21380;-74
2024/03/29 05:50:59;;;;;;;2.03;1.60;;;7.40;1.00;;;;;;5101037;27;20534;-75
2024/03/29 05:53:25;;;;;;;3.05;1.80;;;7.40;1.00;;;;;;5103747;27;20477;-76
2024/03/29 05:55:52;;;;;;;2.83;1.50;;;7.50;1.00;;;;;;5103171;27;21076;-75
2024/03/29 05:58:20;;;;;;;3.35;2.05;;;7.60;1.00;;;;;;5107657;27;20596;-75
2024/03/29 06:00:50;;;;;;;2.37;1.40;;;7.70;1.00;;;;;;5093722;27;20239;-74
2024/03/29 06:03:17;;;;;;;2.80;1.57;;;7.80;1.00;;;;;;5086495;28;20532;-75
2024/03/29 06:05:45;;;;;;;2.27;1.80;;;7.80;1.00;;;;;;5081103;28;21013;-74
2024/03/29 06:08:13;;;;;;;2.00;1.80;;;7.90;1.00;;;;;;5082915;27;20479;-73
2024/03/29 06:10:40;;;;;;;7.00;1.83;;;7.90;1.00;;;;;;5091448;27;20533;-75
2024/03/29 06:13:27;;;;;;;2.40;1.47;;;8.00;1.00;;;;;;5083525;27;21009;-77
2024/03/29 06:18:38;;;;;;;2.90;1.90;;;8.00;1.00;;;;;;5083020;27;20501;-74
2024/03/29 06:21:05;;;;;;;3.10;1.53;;;8.10;1.00;;;;;;5091249;27;20451;-74
2024/03/29 06:23:34;;;;;;;4.10;1.90;;;8.20;1.00;;;;;;5084240;28;20475;-75
2024/03/29 06:26:01;;;;;;;2.37;1.63;;;8.30;1.00;;;;;;5084352;27;20468;-75
2024/03/29 06:28:29;;;;;;;2.80;1.73;;;8.40;1.00;;;;;;5086344;27;20571;-75
2024/03/29 06:30:56;;;;;;;1.97;1.57;;;8.50;1.00;;;;;;5090384;27;20947;-75
2024/03/29 06:33:23;;;;;;;2.40;1.90;;;8.60;1.00;;;;;;5080635;27;20929;-75
2024/03/29 06:35:56;;;;;;;3.23;1.83;;;8.50;1.00;;;;;;5080143;28;20462;-75
2024/03/29 06:38:23;;;;;;;2.63;1.67;;;8.60;1.00;;;;;;5078786;28;20489;-74
2024/03/29 06:40:51;;;;;;;3.20;2.10;;;8.60;1.00;;;;;;5082132;28;20549;-74
2024/03/29 06:43:18;;;;;;;2.27;1.87;;;8.60;1.00;;;;;;5084300;27;20583;-73
2024/03/29 06:45:45;;;;;;;2.30;1.70;;;8.60;1.00;;;;;;5085472;27;20486;-76
2024/03/29 06:48:15;;;;;;;3.50;1.67;;;8.70;1.00;;;;;;5106679;27;20466;-76
2024/03/29 06:50:45;;;;;;;2.03;1.87;;;8.70;1.00;;;;;;5102933;27;21260;-76
2024/03/29 06:53:12;;;;;;;2.17;1.77;;;8.80;1.00;;;;;;5083116;27;20590;-75
2024/03/29 06:55:39;;;;;;;2.63;1.77;;;8.90;1.00;;;;;;5107196;27;20477;-73
2024/03/29 06:58:07;;;;;;;2.53;1.43;;;9.00;1.00;;;;;;5108847;27;20570;-74
2024/03/29 07:00:34;;;;;;;3.33;1.73;;;9.10;1.00;;;;;;5093057;27;20433;-74
2024/03/29 07:03:01;;;;;;;2.93;2.27;;;9.30;1.00;;;;;;5083772;28;20469;-75
2024/03/29 07:05:29;;;;;;;2.43;1.80;;;9.40;1.00;;;;;;5081957;27;20466;-73
2024/03/29 07:07:59;;;;;;;1.70;1.60;;;9.70;1.00;;;;;;5097996;27;20999;-75
2024/03/29 07:10:26;;;;;;;3.43;1.50;;;9.80;1.00;;;;;;5106900;27;20462;-74
2024/03/29 07:12:53;;;;;;;2.80;1.83;;;10.00;1.00;;;;;;5106107;27;20503;-76
2024/03/29 07:15:21;;;;;;;1.73;1.40;;;9.90;1.00;;;;;;5108361;27;20477;-74
2024/03/29 07:17:50;;;;;;;3.30;1.50;;;9.90;1.00;;;;;;5106570;27;20453;-76
2024/03/29 07:20:17;;;;;;;6.77;2.17;;;9.90;1.00;;;;;;5090350;27;20463;-76
2024/03/29 07:22:45;;;;;;;3.60;1.90;;;9.90;1.00;;;;;;5086661;28;20517;-76
2024/03/29 07:25:12;;;;;;;2.67;1.50;;;10.00;1.00;;;;;;5082053;27;20542;-75
2024/03/29 07:27:39;;;;;;;3.53;2.07;;;9.90;1.00;;;;;;5085263;27;20604;-75
2024/03/29 07:30:07;;;;;;;2.83;1.30;;;10.00;1.00;;;;;;5101491;27;20446;-75
2024/03/29 07:32:36;;;;;;;2.90;1.27;;;10.10;1.00;;;;;;5104004;27;20962;-74
2024/03/29 07:35:04;;;;;;;3.43;1.70;;;10.10;1.00;;;;;;5106567;27;20450;-75
2024/03/29 07:37:31;;;;;;;2.10;1.90;;;10.10;1.00;;;;;;5108825;27;20499;-74
2024/03/29 07:39:57;;;;;;;1.73;1.03;;;10.10;1.00;;;;;;5104461;27;20545;-73
2024/03/29 07:42:24;;;;;;;2.70;1.27;;;10.20;1.00;;;;;;5104434;27;20478;-73
2024/03/29 07:44:51;;;;;;;2.10;1.20;;;10.20;1.00;;;;;;5081672;27;20547;-73
2024/03/29 07:47:18;;;;;;;1.77;1.40;;;10.30;1.00;;;;;;5088185;28;20962;-75
2024/03/29 07:49:47;;;;;;;4.10;1.63;;;10.50;1.00;;;;;;5084742;27;20537;-74
2024/03/29 07:52:13;;;;;;;2.10;1.37;;;10.60;1.00;;;;;;5082174;28;21002;-75
2024/03/29 07:54:41;;;;;;;1.93;1.17;;;10.50;1.00;;;;;;5082338;27;20962;-74
2024/03/29 07:57:08;;;;;;;1.50;1.40;;;10.60;1.00;;;;;;5080711;28;20545;-74
2024/03/29 07:59:35;;;;;;;1.67;1.27;;;10.60;1.00;;;;;;5084506;27;20424;-76
2024/03/29 08:02:03;;;;;;;4.40;1.53;;;10.70;1.00;;;;;;5085775;28;20553;-75
2024/03/29 08:04:30;;;;;;;2.17;1.20;;;10.80;1.00;;;;;;5086090;28;20460;-76
2024/03/29 08:06:58;;;;;;;2.70;1.70;;;10.90;1.00;;;;;;5102163;27;20461;-74
2024/03/29 08:09:25;;;;;;;3.93;1.50;;;11.10;1.00;;;;;;5099119;27;20508;-75
2024/03/29 08:11:53;;;;;;;2.07;1.30;;;11.20;1.00;;;;;;5104862;27;20445;-76
2024/03/29 08:14:20;;;;;;;3.47;1.50;;;11.20;1.00;;;;;;5103697;27;20995;-76
2024/03/29 08:16:47;;;;;;;1.40;1.20;;;11.30;1.00;;;;;;5106174;27;20473;-76
2024/03/29 08:19:15;;;;;;;2.87;1.10;;;11.40;1.00;;;;;;5106471;27;20477;-74
2024/03/29 08:21:42;;;;;;;1.50;1.20;;;11.40;1.00;;;;;;5103720;27;20454;-75
2024/03/29 08:24:11;;;;;;;3.40;1.40;;;11.40;1.00;;;;;;5110654;27;21314;-75
2024/03/29 08:26:38;;;;;;;2.10;0.97;;;11.40;1.00;;;;;;5100753;27;21215;-75
2024/03/29 08:29:05;;;;;;;1.77;1.10;;;11.40;1.00;;;;;;5105636;27;20521;-75
2024/03/29 08:31:32;;;;;;;3.07;1.20;;;11.40;1.00;;;;;;5107306;27;21190;-74
2024/03/29 08:34:01;;;;;;;3.27;1.70;;;11.40;1.00;;;;;;5106799;27;20446;-75
2024/03/29 08:36:28;;;;;;;2.20;1.17;;;11.50;1.00;;;;;;5105547;27;20982;-76
2024/03/29 08:38:55;;;;;;;1.63;1.00;;;11.50;1.00;;;;;;5102334;27;20422;-74
2024/03/29 08:41:23;;;;;;;1.80;1.47;;;11.50;1.00;;;;;;5103735;27;20921;-74
2024/03/29 08:43:50;;;;;;;1.60;1.20;;;11.50;1.00;;;;;;5106701;27;20450;-75
2024/03/29 08:46:17;;;;;;;1.93;1.20;;;11.60;1.00;;;;;;5103178;27;21279;-75
2024/03/29 08:48:44;;;;;;;1.57;1.17;;;11.70;1.00;;;;;;5104575;27;20913;-74
2024/03/29 08:51:12;;;;;;;1.73;1.43;;;11.80;1.00;;;;;;5105000;27;20458;-75
2024/03/29 08:53:39;;;;;;;1.60;0.97;;;12.00;1.00;;;;;;5106463;27;22262;-75
2024/03/29 08:56:06;;;;;;;2.53;1.33;;;12.30;1.00;;;;;;5107024;27;20496;-74
2024/03/29 08:58:34;;;;;;;1.20;1.03;;;12.50;1.00;;;;;;5102400;27;20944;-76
2024/03/29 09:01:04;;;;;;;1.50;1.30;;;12.60;1.00;;;;;;5105970;27;21197;-74
2024/03/29 09:03:32;;;;;;;2.40;1.33;;;12.70;1.00;;;;;;5106308;27;20489;-74
2024/03/29 09:05:59;;;;;;;3.63;1.43;;;12.90;1.00;;;;;;5103004;27;20447;-74
2024/03/29 09:08:26;;;;;;;2.30;1.30;;;13.10;1.00;;;;;;5107180;27;20478;-75
2024/03/29 09:10:53;;;;;;;2.30;1.50;;;13.30;1.00;;;;;;5106138;27;20519;-74
2024/03/29 09:13:20;;;;;;;2.60;1.10;;;13.30;1.00;;;;;;5104628;27;20956;-75
2024/03/29 09:15:49;;;;;;;3.00;1.77;;;13.50;1.00;;;;;;5101716;27;20931;-74
2024/03/29 09:18:23;;;;;;;2.67;1.30;;;13.50;1.00;;;;;;5103292;27;20488;-75
2024/03/29 09:20:59;;;;;;;1.90;1.40;;;13.40;1.00;;;;;;5106381;27;20549;-74
2024/03/29 09:23:28;;;;;;;3.10;1.30;;;13.60;1.00;;;;;;5104447;27;21031;-73
2024/03/29 09:25:55;;;;;;;2.53;1.40;;;13.60;1.00;;;;;;5103383;27;20516;-75
2024/03/29 09:28:25;;;;;;;1.40;1.30;;;13.40;1.00;;;;;;5102996;27;20558;-74
2024/03/29 09:30:59;;;;;;;2.63;1.20;;;13.50;1.00;;;;;;5100453;27;20549;-73
2024/03/29 09:33:26;;;;;;;2.60;1.20;;;13.30;1.00;;;;;;5100884;27;20469;-76
2024/03/29 09:35:54;;;;;;;1.70;1.00;;;13.20;1.00;;;;;;5103767;27;20560;-74
2024/03/29 09:38:21;;;;;;;1.20;1.10;;;13.30;1.00;;;;;;5102223;27;20460;-75
2024/03/29 09:40:52;;;;;;;1.30;0.93;;;13.70;1.00;;;;;;5085518;27;20803;-74
2024/03/29 09:43:21;;;;;;;1.33;1.00;;;13.90;1.00;;;;;;5090642;27;20437;-73
2024/03/29 09:45:49;;;;;;;1.80;1.27;;;13.70;1.00;;;;;;5079659;27;20461;-74
2024/03/29 09:48:17;;;;;;;2.70;1.30;;;13.60;1.00;;;;;;5083662;28;20493;-74
2024/03/29 09:50:47;;;;;;;2.00;1.50;;;13.80;1.00;;;;;;5081767;27;20484;-73
2024/03/29 09:53:19;;;;;;;5.43;1.20;;;13.80;1.00;;;;;;5070028;28;20458;-76
2024/03/29 09:55:47;;;;;;;1.77;1.00;;;13.50;1.00;;;;;;5090050;27;20460;-76
2024/03/29 09:58:16;;;;;;;2.53;1.60;;;13.60;1.00;;;;;;5081830;28;21278;-75
2024/03/29 10:00:45;;;;;;;2.67;1.47;;;13.60;1.00;;;;;;5080700;28;21047;-77
2024/03/29 10:03:14;;;;;;;3.83;1.77;;;13.70;1.00;;;;;;5076330;27;20440;-76
2024/03/29 10:05:43;;;;;;;2.13;1.87;;;13.70;1.00;;;;;;5100585;27;20988;-75
2024/03/29 10:08:12;;;;;;;3.23;1.50;;;13.50;1.00;;;;;;5103104;27;20538;-74
2024/03/29 10:10:39;;;;;;;2.07;1.47;;;13.60;1.00;;;;;;5103334;27;20437;-75
2024/03/29 10:13:09;;;;;;;1.77;1.67;;;13.70;1.00;;;;;;5102791;27;20995;-74
2024/03/29 10:15:38;;;;;;;1.97;1.20;;;13.90;1.00;;;;;;5109236;27;20460;-75
2024/03/29 10:18:10;;;;;;;3.33;1.73;;;14.10;1.00;;;;;;5106227;27;20557;-72
2024/03/29 10:20:37;;;;;;;1.90;1.40;;;14.10;1.00;;;;;;5108325;27;20465;-74
2024/03/29 10:23:07;;;;;;;1.63;1.20;;;13.80;1.00;;;;;;5105867;27;20454;-74
2024/03/29 10:25:34;;;;;;;2.60;1.40;;;13.50;1.00;;;;;;5102116;27;20557;-73
2024/03/29 10:28:02;;;;;;;1.83;1.27;;;13.10;1.00;;;;;;5107362;27;20522;-73
2024/03/29 10:30:29;;;;;;;2.70;1.33;;;12.90;1.00;;;;;;5103427;27;20521;-75
2024/03/29 10:32:57;;;;;;;1.80;1.30;;;12.60;1.00;;;;;;5107970;27;20527;-74
2024/03/29 10:35:26;;;;;;;2.47;1.40;;;12.50;1.00;;;;;;5109739;27;20489;-73
2024/03/29 10:37:53;;;;;;;1.37;1.27;;;12.30;1.00;;;;;;5107727;27;20533;-73
2024/03/29 10:40:24;;;;;;;1.77;0.90;;;12.20;1.00;;;;;;5085073;27;20476;-74
2024/03/29 10:42:53;;;;;;;1.50;1.00;;;12.30;1.00;;;;;;5104108;27;21087;-73
2024/03/29 10:45:23;;;;;;;2.67;1.30;;;12.40;1.00;;;;;;5098761;27;20540;-74
2024/03/29 10:47:53;;;;;;;1.00;0.80;;;12.50;1.00;;;;;;5083486;27;20916;-74
2024/03/29 10:50:23;;;;;;;1.23;1.13;;;12.60;1.00;;;;;;5106359;27;20571;-74
2024/03/29 10:52:51;;;;;;;2.00;0.87;;;12.70;1.00;;;;;;5094604;27;20464;-73
2024/03/29 10:55:19;;;;;;;1.10;0.80;;;12.70;1.00;;;;;;5084030;27;20451;-73
2024/03/29 10:57:51;;;;;;;1.40;1.00;;;12.70;1.00;;;;;;5082080;28;20471;-73
2024/03/29 11:00:20;;;;;;;1.87;1.00;;;12.70;1.00;;;;;;5088787;27;20527;-73
2024/03/29 11:02:51;;;;;;;1.00;0.70;;;12.70;1.00;;;;;;5079668;28;20869;-74
2024/03/29 11:05:20;;;;;;;2.30;0.90;;;12.70;1.00;;;;;;5080959;27;20463;-73
2024/03/29 11:07:48;;;;;;;2.03;1.13;;;13.00;1.00;;;;;;5078866;27;20420;-74
2024/03/29 11:10:23;;;;;;;1.80;0.90;;;13.30;1.00;;;;;;5082538;27;20475;-73
2024/03/29 11:13:03;;;;;;;2.60;1.30;;;13.60;1.00;;;;;;5078906;27;20459;-74
2024/03/29 11:15:31;;;;;;;2.03;1.67;;;13.90;1.00;;;;;;5085649;27;20471;-74
2024/03/29 11:17:59;;;;;;;1.50;1.00;;;14.50;1.00;;;;;;5082060;27;20454;-73
2024/03/29 11:20:34;;;;;;;3.07;1.60;;;14.80;1.00;;;;;;5080740;27;20486;-72
2024/03/29 11:23:06;;;;;;;2.23;1.00;;;15.00;1.00;;;;;;5075393;28;20511;-74
2024/03/29 11:25:40;;;;;;;1.63;1.13;;;15.10;1.00;;;;;;5089365;27;20476;-74
2024/03/29 11:28:13;;;;;;;4.77;1.20;;;15.50;1.00;;;;;;5098292;27;20470;-73
2024/03/29 11:30:44;;;;;;;1.20;0.87;;;15.60;1.00;;;;;;5081394;27;20962;-76
2024/03/29 11:33:29;;;;;;;1.03;0.83;;;15.40;1.00;;;;;;5088116;27;20442;-74
2024/03/29 11:35:56;;;;;;;1.10;0.60;;;15.60;1.00;;;;;;5106965;27;20442;-76
2024/03/29 11:38:30;;;;;;;1.63;0.90;;;15.40;1.00;;;;;;5109399;27;20512;-75
2024/03/29 11:41:07;;;;;;;1.93;0.63;;;15.20;1.00;;;;;;5106437;27;20464;-75
2024/03/29 11:43:39;;;;;;;6.23;1.17;;;15.00;1.00;;;;;;5089997;27;20453;-76
2024/03/29 11:46:08;;;;;;;6.67;1.13;;;14.70;1.00;;;;;;5097423;27;20531;-75
2024/03/29 11:48:36;;;;;;;2.50;0.87;;;14.60;1.00;;;;;;5091306;27;20979;-75
2024/03/29 11:51:05;;;;;;;1.43;1.13;;;14.70;1.00;;;;;;5104431;27;20597;-74
2024/03/29 11:53:32;;;;;;;2.90;0.90;;;14.70;1.00;;;;;;5083668;28;20964;-73
2024/03/29 11:56:00;;;;;;;1.30;0.67;;;14.70;1.00;;;;;;5082712;28;20550;-74
2024/03/29 11:58:28;;;;;;;1.37;0.80;;;14.40;1.00;;;;;;5083251;28;20486;-75
2024/03/29 12:00:58;;;;;;;1.70;1.00;;;14.30;1.00;;;;;;5101081;27;20467;-74
2024/03/29 12:03:26;;;;;;;1.27;1.00;;;14.10;1.00;;;;;;5101572;27;20536;-74
2024/03/29 12:05:58;;;;;;;1.70;1.40;;;14.10;1.00;;;;;;5103096;27;20480;-74
2024/03/29 12:08:25;;;;;;;1.70;0.87;;;14.00;1.00;;;;;;5100581;27;20509;-72
2024/03/29 12:10:52;;;;;;;1.93;1.17;;;13.90;1.00;;;;;;5104787;27;20488;-74
2024/03/29 12:13:21;;;;;;;1.23;1.00;;;13.70;1.00;;;;;;5098711;27;20450;-75
2024/03/29 12:15:50;;;;;;;4.13;0.97;;;13.60;1.00;;;;;;5104437;27;20460;-75
2024/03/29 12:18:21;;;;;;;1.10;0.77;;;13.50;1.00;;;;;;5104684;27;20533;-76
2024/03/29 12:20:49;;;;;;;2.63;1.00;;;13.40;1.00;;;;;;5102202;27;20475;-74
2024/03/29 12:23:17;;;;;;;2.70;0.90;;;13.40;1.00;;;;;;5103946;27;20491;-75
2024/03/29 12:25:45;;;;;;;2.00;0.90;;;13.50;1.00;;;;;;5095545;27;20567;-75
2024/03/29 12:28:12;;;;;;;1.10;1.00;;;13.70;1.00;;;;;;5118194;27;21026;-75
2024/03/29 12:30:42;;;;;;;1.37;0.80;;;14.10;1.00;;;;;;5106238;27;20526;-74
2024/03/29 12:33:10;;;;;;;2.00;0.80;;;14.30;1.00;;;;;;5103551;27;20424;-75
2024/03/29 12:35:40;;;;;;;1.63;1.10;;;14.50;1.00;;;;;;5101789;27;21325;-75
2024/03/29 12:38:07;;;;;;;1.10;0.90;;;14.80;1.00;;;;;;5104105;27;20458;-74
2024/03/29 12:40:37;;;;;;;1.20;0.90;;;14.90;1.00;;;;;;5104076;27;21009;-75
2024/03/29 12:43:07;;;;;;;1.87;1.30;;;15.10;1.00;;;;;;5082388;27;20461;-75
2024/03/29 12:45:38;;;;;;;1.80;0.97;;;15.20;1.00;;;;;;5081890;28;20464;-75
2024/03/29 12:48:11;;;;;;;1.80;0.97;;;15.60;1.00;;;;;;5084085;27;20495;-74
2024/03/29 12:50:42;;;;;;;2.07;1.27;;;16.20;1.00;;;;;;5092158;27;20996;-74
2024/03/29 12:53:12;;;;;;;1.20;0.80;;;17.40;1.00;;;;;;5106117;27;20517;-76
2024/03/29 12:55:45;;;;;;;3.03;0.93;;;17.90;1.00;;;;;;5106608;27;20805;-76
2024/03/29 12:58:13;;;;;;;3.20;1.67;;;18.60;1.00;;;;;;5091131;27;20532;-77
2024/03/29 13:00:41;;;;;;;1.30;1.20;;;19.40;1.00;;;;;;5087118;28;20654;-77
2024/03/29 13:03:08;;;;;;;1.60;1.50;;;19.30;1.00;;;;;;5086805;27;20507;-76
2024/03/29 13:05:40;;;;;;;1.63;0.90;;;18.40;1.00;;;;;;5083473;27;20473;-76
2024/03/29 13:08:12;;;;;;;1.97;1.47;;;18.00;1.00;;;;;;5083620;27;20545;-76
2024/03/29 13:10:39;;;;;;;1.00;0.90;;;18.30;1.00;;;;;;5090690;27;20550;-75
2024/03/29 13:13:07;;;;;;;1.57;1.10;;;17.90;1.00;;;;;;5072416;28;20899;-74
2024/03/29 13:15:35;;;;;;;1.67;1.00;;;17.40;1.00;;;;;;5084303;28;20535;-75
2024/03/29 13:18:03;;;;;;;1.50;1.00;;;17.20;1.00;;;;;;5090324;27;20986;-75
2024/03/29 13:20:31;;;;;;;1.47;1.37;;;17.00;1.00;;;;;;5085445;28;21717;-76
2024/03/29 13:22:59;;;;;;;1.23;0.93;;;17.00;1.00;;;;;;5087354;27;20526;-76
2024/03/29 13:25:28;;;;;;;1.60;1.10;;;17.00;1.00;;;;;;5100439;27;20463;-76
2024/03/29 13:27:56;;;;;;;1.93;1.00;;;16.90;1.00;;;;;;5093931;27;21038;-75
2024/03/29 13:30:23;;;;;;;1.30;1.00;;;16.80;1.00;;;;;;5083475;27;20560;-76
2024/03/29 13:32:51;;;;;;;2.17;1.10;;;16.50;1.00;;;;;;5084315;28;20900;-75
2024/03/29 13:35:21;;;;;;;2.40;1.17;;;16.30;1.00;;;;;;5082521;27;20598;-75
2024/03/29 13:37:51;;;;;;;3.47;1.87;;;16.10;1.00;;;;;;5091721;27;20419;-74
2024/03/29 13:40:20;;;;;;;1.00;0.70;;;16.10;1.00;;;;;;5091416;27;20549;-75
2024/03/29 13:42:49;;;;;;;2.10;1.13;;;16.00;1.00;;;;;;5105673;27;20465;-76
2024/03/29 13:45:20;;;;;;;1.37;1.20;;;16.20;1.00;;;;;;5099977;27;21670;-74
2024/03/29 13:47:48;;;;;;;1.73;1.27;;;16.30;1.00;;;;;;5104861;27;20777;-76
2024/03/29 13:50:15;;;;;;;1.40;0.83;;;16.50;1.00;;;;;;5105127;27;21036;-74
2024/03/29 13:52:43;;;;;;;1.80;0.80;;;17.10;1.00;;;;;;5099546;27;20421;-74
2024/03/29 13:55:13;;;;;;;2.63;1.10;;;17.30;1.00;;;;;;5104255;27;20482;-76
2024/03/29 13:57:43;;;;;;;1.10;0.97;;;17.20;1.00;;;;;;5101576;27;20450;-74
2024/03/29 14:00:14;;;;;;;1.53;1.10;;;17.30;1.00;;;;;;5103323;27;20473;-74
2024/03/29 14:02:42;;;;;;;1.33;1.03;;;17.70;1.00;;;;;;5104923;27;20983;-73
2024/03/29 14:05:10;;;;;;;3.43;1.47;;;17.80;1.00;;;;;;5098963;27;20537;-75
2024/03/29 14:07:37;;;;;;;1.40;1.20;;;17.80;1.00;;;;;;5102945;27;20465;-75
2024/03/29 14:10:06;;;;;;;1.60;0.97;;;17.90;1.00;;;;;;5085484;28;20480;-73
2024/03/29 14:12:33;;;;;;;2.90;1.17;;;18.00;1.00;;;;;;5083092;28;20908;-74
2024/03/29 14:15:00;;;;;;;1.47;1.30;;;17.90;1.00;;;;;;5086660;27;20466;-74
2024/03/29 14:17:29;;;;;;;1.20;1.00;;;17.90;1.00;;;;;;5088925;28;20498;-77
2024/03/29 14:19:56;;;;;;;3.43;1.10;;;17.90;1.00;;;;;;5089254;27;20460;-73
2024/03/29 14:22:23;;;;;;;2.43;1.60;;;17.90;1.00;;;;;;5078167;28;20487;-74
2024/03/29 14:24:51;;;;;;;1.67;1.30;;;17.70;1.00;;;;;;5081419;27;20451;-75
2024/03/29 14:27:18;;;;;;;1.63;1.00;;;17.80;1.00;;;;;;5081813;28;20475;-74
2024/03/29 14:29:46;;;;;;;2.37;1.03;;;17.80;1.00;;;;;;5079262;28;21325;-75
2024/03/29 14:32:13;;;;;;;1.60;1.07;;;17.80;1.00;;;;;;5081833;27;20476;-75
2024/03/29 14:34:46;;;;;;;1.13;0.90;;;17.90;1.00;;;;;;5083553;28;20504;-75
2024/03/29 14:37:15;;;;;;;1.87;1.00;;;17.80;1.00;;;;;;5083285;28;20465;-74
2024/03/29 14:39:44;;;;;;;1.13;1.03;;;17.50;1.00;;;;;;5078209;27;20475;-74
2024/03/29 14:42:16;;;;;;;1.40;1.10;;;17.40;1.00;;;;;;5080008;28;20456;-73
2024/03/29 14:44:42;;;;;;;0.97;0.83;;;17.40;1.00;;;;;;5080622;27;20478;-73
2024/03/29 14:47:09;;;;;;;1.30;1.20;;;17.60;1.00;;;;;;5086252;27;20529;-74
2024/03/29 14:49:37;;;;;;;1.87;1.10;;;17.70;1.00;;;;;;5083466;27;20487;-77
2024/03/29 14:52:06;;;;;;;1.30;1.20;;;17.70;1.00;;;;;;5089512;27;20451;-74
2024/03/29 14:54:32;;;;;;;1.83;1.27;;;17.70;1.00;;;;;;5082299;27;20457;-75
2024/03/29 14:57:00;;;;;;;1.90;1.50;;;17.70;1.00;;;;;;5079121;28;20524;-74